Time;durP1;ratioP1;P1;durP2;ratioP2;P2;SDS_P1;SDS_P2;PMS_P1;PMS_P2;Temp;Humidity;BMP_temperature;BMP_pressure;BME280_temperature;BME280_humidity;BME280_pressure;Samples;Min_cycle;Max_cycle;Signal;HPM_P1;HPM_P2
2022/09/27 00:01:46;;;;;;;2.60;1.23;;;;;;;13.12;66.61;97336.59;5164122;28;20535;-72
2022/09/27 00:04:36;;;;;;;1.50;0.90;;;;;;;12.95;67.14;97344.13;5165631;28;20057;-72
2022/09/27 00:07:26;;;;;;;1.33;0.85;;;;;;;13.04;66.36;97326.94;5177485;28;20499;-73
2022/09/27 00:10:16;;;;;;;1.80;1.05;;;;;;;13.12;66.82;97339.25;5155792;28;20100;-73
2022/09/27 00:13:06;;;;;;;1.65;1.10;;;;;;;13.28;66.83;97340.78;5170201;28;20197;-73
2022/09/27 00:15:59;;;;;;;2.42;1.00;;;;;;;12.87;66.29;97338.97;5167790;28;20069;-72
2022/09/27 00:18:49;;;;;;;0.93;0.77;;;;;;;12.90;66.59;97331.41;5161603;28;20057;-72
2022/09/27 00:21:41;;;;;;;1.10;0.90;;;;;;;12.80;67.89;97338.13;5175306;28;20119;-72
2022/09/27 00:24:30;;;;;;;3.03;0.90;;;;;;;13.10;67.30;97336.78;5163724;28;20077;-72
2022/09/27 00:27:20;;;;;;;1.10;0.70;;;;;;;13.11;66.57;97330.47;5178435;28;20054;-72
2022/09/27 00:30:11;;;;;;;1.52;0.70;;;;;;;13.20;66.58;97339.06;5165568;28;20054;-72
2022/09/27 00:33:01;;;;;;;1.00;0.80;;;;;;;13.26;66.81;97330.31;5171733;28;20061;-71
2022/09/27 00:35:52;;;;;;;1.90;0.80;;;;;;;13.37;66.03;97332.38;5165738;28;20057;-71
2022/09/27 00:38:42;;;;;;;1.20;0.75;;;;;;;13.21;67.29;97335.41;5176777;28;20061;-72
2022/09/27 00:41:34;;;;;;;2.70;0.70;;;;;;;13.25;66.94;97322.53;5155566;28;20455;-72
2022/09/27 00:44:28;;;;;;;2.85;0.63;;;;;;;12.86;67.91;97327.50;5169050;28;20064;-72
2022/09/27 00:47:32;;;;;;;0.70;0.63;;;;;;;12.86;68.15;97311.53;5178286;28;20050;-72
2022/09/27 00:50:28;;;;;;;3.93;0.70;;;;;;;13.19;67.83;97320.66;5168964;28;20419;-71
2022/09/27 00:53:23;;;;;;;1.95;0.80;;;;;;;13.24;67.99;97318.19;5158242;28;20050;-71
2022/09/27 00:56:21;;;;;;;0.60;0.60;;;;;;;13.25;67.92;97301.25;5165336;28;20541;-71
2022/09/27 00:59:29;;;;;;;1.85;0.68;;;;;;;13.26;68.34;97316.19;5163423;28;20121;-72
2022/09/27 01:02:19;;;;;;;1.05;0.60;;;;;;;13.24;67.69;97307.53;5175154;28;20104;-72
2022/09/27 01:05:12;;;;;;;1.75;0.68;;;;;;;13.33;68.38;97309.03;5161282;28;20145;-72
2022/09/27 01:08:02;;;;;;;0.60;0.60;;;;;;;13.09;67.11;97289.09;5172034;28;20693;-72
2022/09/27 01:11:03;;;;;;;0.63;0.63;;;;;;;13.27;67.61;97299.19;5156413;28;20153;-72
2022/09/27 01:14:09;;;;;;;1.10;0.68;;;;;;;13.23;68.37;97305.91;5166716;28;20476;-72
2022/09/27 01:17:05;;;;;;;1.73;0.60;;;;;;;13.20;68.27;97308.97;5157320;28;20077;-72
2022/09/27 01:20:14;;;;;;;0.60;0.60;;;;;;;13.25;68.20;97298.59;5159489;28;20049;-71
2022/09/27 01:23:19;;;;;;;0.95;0.50;;;;;;;13.21;68.22;97302.63;5157202;28;20487;-72
2022/09/27 01:26:52;;;;;;;0.77;0.60;;;;;;;13.21;68.04;97306.13;5151986;28;20448;-72
2022/09/27 01:30:13;;;;;;;4.60;0.70;;;;;;;13.32;68.57;97304.75;5159971;28;20490;-72
2022/09/27 01:33:26;;;;;;;;;;;;;;;13.27;67.98;97299.19;5152625;28;20078;-72
2022/09/27 01:36:26;;;;;;;0.73;0.50;;;;;;;13.23;68.12;97295.25;5152011;28;19921;-71
2022/09/27 01:39:31;;;;;;;0.52;0.52;;;;;;;13.19;68.33;97294.84;5145114;28;20064;-72
2022/09/27 01:42:52;;;;;;;0.30;0.30;;;;;;;13.10;68.09;97285.41;5172870;28;20104;-72
2022/09/27 01:45:58;;;;;;;0.68;0.60;;;;;;;13.15;68.34;97294.44;5140907;28;20088;-72
2022/09/27 01:49:28;;;;;;;2.05;0.68;;;;;;;13.11;67.75;97295.88;5169118;28;20045;-72
2022/09/27 01:52:23;;;;;;;0.50;0.50;;;;;;;13.26;67.70;97290.38;5159656;28;20065;-71
2022/09/27 01:55:17;;;;;;;0.80;0.45;;;;;;;13.24;67.68;97287.09;5145524;28;20139;-72
2022/09/27 01:58:51;;;;;;;2.50;0.63;;;;;;;13.23;68.19;97297.94;5158465;28;20056;-72
2022/09/27 02:01:45;;;;;;;0.50;0.40;;;;;;;13.35;68.29;97293.69;5160864;28;20056;-71
2022/09/27 02:04:39;;;;;;;3.40;0.70;;;;;;;13.26;68.24;97305.53;5151144;28;20131;-71
2022/09/27 02:07:48;;;;;;;0.95;0.50;;;;;;;13.03;69.19;97309.34;5157248;28;20056;-71
2022/09/27 02:10:41;;;;;;;0.47;0.47;;;;;;;13.22;68.71;97304.28;5161101;28;20038;-72
2022/09/27 02:13:41;;;;;;;2.75;0.50;;;;;;;13.09;68.40;97279.28;5157435;28;20065;-71
2022/09/27 02:16:51;;;;;;;3.90;0.60;;;;;;;13.16;68.88;97303.22;5164926;28;20113;-71
2022/09/27 02:20:06;;;;;;;0.77;0.50;;;;;;;13.09;69.06;97308.53;5172331;28;20698;-71
2022/09/27 02:23:31;;;;;;;4.82;0.80;;;;;;;13.09;69.52;97321.84;5160301;28;20065;-72
2022/09/27 02:26:54;;;;;;;0.90;0.60;;;;;;;13.09;69.20;97342.31;5153018;28;20515;-71
2022/09/27 02:29:59;;;;;;;1.77;0.50;;;;;;;12.56;71.67;97348.22;5165586;28;20159;-71
2022/09/27 02:32:51;;;;;;;2.05;0.50;;;;;;;11.87;73.07;97329.59;5183426;28;20050;-71
2022/09/27 02:35:41;;;;;;;1.02;0.60;;;;;;;12.48;71.16;97343.06;5154512;28;20508;-72
2022/09/27 02:38:32;;;;;;;2.65;0.57;;;;;;;12.38;70.14;97337.28;5157638;28;20046;-72
2022/09/27 02:41:24;;;;;;;2.30;0.50;;;;;;;12.12;70.98;97330.81;5159733;28;20046;-71
2022/09/27 02:44:16;;;;;;;2.42;0.75;;;;;;;12.43;69.89;97338.34;5154088;28;20057;-71
2022/09/27 02:47:27;;;;;;;2.63;0.88;;;;;;;12.38;70.08;97340.78;5162065;28;20876;-71
2022/09/27 02:50:45;;;;;;;3.72;0.50;;;;;;;12.26;69.45;97333.53;5159151;28;20120;-71
2022/09/27 02:54:00;;;;;;;4.80;1.08;;;;;;;11.02;73.18;97334.69;5171974;28;20570;-71
2022/09/27 02:57:33;;;;;;;7.53;1.10;;;;;;;11.50;72.24;97347.44;5179680;28;20501;-71
2022/09/27 03:01:08;;;;;;;6.17;1.30;;;;;;;11.68;71.15;97346.97;5148384;28;20054;-71
2022/09/27 03:04:22;;;;;;;2.85;0.90;;;;;;;11.45;71.26;97341.84;5161779;28;20064;-71
2022/09/27 03:07:14;;;;;;;5.88;1.20;;;;;;;11.61;71.49;97327.50;5166556;28;20139;-71
2022/09/27 03:10:06;;;;;;;5.88;1.05;;;;;;;11.89;69.91;97346.97;5174291;28;20054;-71
2022/09/27 03:12:57;;;;;;;6.57;1.10;;;;;;;11.34;71.53;97355.63;5176911;28;20085;-71
2022/09/27 03:15:48;;;;;;;4.95;1.23;;;;;;;10.91;73.94;97368.81;5150887;28;20081;-71
2022/09/27 03:18:41;;;;;;;8.15;1.13;;;;;;;10.98;73.20;97367.88;5173498;28;20056;-71
2022/09/27 03:21:50;;;;;;;9.10;1.55;;;;;;;10.82;73.15;97365.44;5161171;28;20128;-71
2022/09/27 03:24:40;;;;;;;4.88;1.20;;;;;;;11.09;73.16;97366.56;5152889;28;20115;-71
2022/09/27 03:27:31;;;;;;;5.47;1.45;;;;;;;11.59;72.01;97380.81;5153005;28;20115;-71
2022/09/27 03:30:21;;;;;;;8.27;1.42;;;;;;;11.48;71.53;97360.88;5176310;28;20057;-71
2022/09/27 03:33:12;;;;;;;4.40;1.45;;;;;;;11.28;72.58;97375.78;5157475;28;20560;-71
2022/09/27 03:36:13;;;;;;;5.50;1.58;;;;;;;11.40;71.42;97368.97;5154104;28;20504;-71
2022/09/27 03:39:03;;;;;;;5.30;1.80;;;;;;;10.72;73.93;97375.50;5178566;28;20056;-71
2022/09/27 03:41:53;;;;;;;7.88;1.60;;;;;;;11.07;73.98;97371.25;5155480;28;20107;-72
2022/09/27 03:44:43;;;;;;;4.38;2.03;;;;;;;11.22;73.41;97374.69;5140275;28;20060;-72
2022/09/27 03:47:33;;;;;;;5.90;1.90;;;;;;;11.61;71.39;97376.09;5164652;28;20101;-72
2022/09/27 03:50:24;;;;;;;9.20;2.20;;;;;;;11.68;70.56;97371.66;5158371;28;20408;-72
2022/09/27 03:53:14;;;;;;;3.10;1.48;;;;;;;11.45;71.65;97387.78;5158355;28;20053;-72
2022/09/27 03:56:05;;;;;;;5.38;1.92;;;;;;;10.79;74.51;97381.72;5142581;28;20057;-72
2022/09/27 03:58:56;;;;;;;5.97;1.92;;;;;;;10.87;74.43;97372.88;5160854;28;20065;-71
2022/09/27 04:01:47;;;;;;;12.20;2.03;;;;;;;11.42;72.17;97387.34;5160820;28;20188;-72
2022/09/27 04:04:57;;;;;;;7.25;2.45;;;;;;;10.98;72.81;97388.28;5164342;28;20062;-71
2022/09/27 04:07:48;;;;;;;5.07;2.03;;;;;;;10.61;74.45;97376.81;5161373;28;20061;-73
2022/09/27 04:10:41;;;;;;;6.22;2.17;;;;;;;11.49;73.14;97396.22;5157632;28;20065;-72
2022/09/27 04:13:32;;;;;;;6.05;2.22;;;;;;;11.02;72.70;97365.69;5158899;28;20069;-73
2022/09/27 04:16:22;;;;;;;9.30;2.47;;;;;;;11.12;72.41;97397.22;5167393;28;20054;-73
2022/09/27 04:19:17;;;;;;;9.40;2.05;;;;;;;11.39;72.63;97393.03;5157581;28;20054;-73
2022/09/27 04:22:26;;;;;;;7.55;1.95;;;;;;;10.97;73.97;97373.38;5153191;28;20413;-73
2022/09/27 04:25:17;;;;;;;11.40;1.90;;;;;;;11.20;72.02;97389.16;5150072;28;20054;-74
2022/09/27 04:28:09;;;;;;;6.15;2.10;;;;;;;11.42;72.14;97393.50;5161793;28;20062;-73
2022/09/27 04:30:59;;;;;;;11.38;2.17;;;;;;;11.45;71.01;97398.41;5170961;28;20058;-73
2022/09/27 04:34:10;;;;;;;8.23;1.73;;;;;;;11.26;72.47;97393.72;5148254;28;20057;-75
2022/09/27 04:37:01;;;;;;;5.63;1.70;;;;;;;11.08;72.80;97403.91;5162077;28;20054;-73
2022/09/27 04:40:02;;;;;;;8.27;2.00;;;;;;;11.61;71.40;97407.16;5157324;28;20132;-74
2022/09/27 04:42:53;;;;;;;8.55;2.33;;;;;;;11.60;71.19;97413.47;5163766;28;20147;-76
2022/09/27 04:45:43;;;;;;;7.70;2.40;;;;;;;11.35;71.48;97407.69;5151748;28;20060;-76
2022/09/27 04:48:34;;;;;;;9.48;2.22;;;;;;;11.10;72.37;97402.72;5149053;28;20061;-77
2022/09/27 04:51:25;;;;;;;19.27;2.72;;;;;;;11.70;70.47;97408.66;5152368;28;20054;-76
2022/09/27 04:54:16;;;;;;;7.18;2.10;;;;;;;11.98;69.34;97425.50;5164371;28;20179;-79
2022/09/27 04:57:19;;;;;;;9.65;2.00;;;;;;;11.92;69.98;97409.50;5180298;28;20050;-78
2022/09/27 05:00:10;;;;;;;7.93;1.92;;;;;;;11.62;70.89;97430.88;5178171;28;20104;-77
2022/09/27 05:03:01;;;;;;;9.65;2.20;;;;;;;11.40;71.00;97411.44;5148873;28;20054;-75
2022/09/27 05:06:05;;;;;;;5.90;1.83;;;;;;;11.60;70.84;97427.56;5171041;28;20056;-77
2022/09/27 05:08:55;;;;;;;7.68;2.17;;;;;;;11.18;71.27;97417.69;5165748;28;20061;-76
2022/09/27 05:11:51;;;;;;;13.43;2.00;;;;;;;11.90;69.89;97436.25;5159250;28;20535;-75
2022/09/27 05:15:01;;;;;;;5.00;1.52;;;;;;;11.40;71.14;97421.22;5167140;28;20084;-75
2022/09/27 05:18:10;;;;;;;7.28;2.33;;;;;;;11.74;69.35;97444.44;5162412;28;20136;-75
2022/09/27 05:21:21;;;;;;;5.20;1.50;;;;;;;10.80;73.81;97454.97;5169693;28;20037;-75
2022/09/27 05:24:11;;;;;;;4.47;1.48;;;;;;;10.90;71.80;97458.16;5155206;28;20073;-75
2022/09/27 05:27:02;;;;;;;4.07;1.02;;;;;;;11.23;72.06;97457.78;5159139;28;20047;-72
2022/09/27 05:29:54;;;;;;;8.32;1.50;;;;;;;11.35;71.01;97460.75;5149312;28;20054;-70
2022/09/27 05:32:48;;;;;;;8.20;1.67;;;;;;;11.27;71.87;97459.84;5163287;28;20053;-73
2022/09/27 05:35:55;;;;;;;5.35;1.20;;;;;;;11.69;70.41;97479.53;5168425;28;20045;-71
2022/09/27 05:38:50;;;;;;;4.70;1.23;;;;;;;11.64;70.53;97487.22;5152722;28;20133;-72
2022/09/27 05:41:42;;;;;;;2.70;0.93;;;;;;;11.29;71.71;97496.81;5146894;28;20057;-69
2022/09/27 05:44:34;;;;;;;3.17;0.95;;;;;;;10.40;73.37;97478.22;5144725;28;20077;-71
2022/09/27 05:47:24;;;;;;;7.25;1.00;;;;;;;10.35;73.29;97491.19;5148844;28;20057;-71
2022/09/27 05:50:14;;;;;;;2.97;1.10;;;;;;;11.11;71.83;97507.00;5147016;28;20149;-72
2022/09/27 05:53:05;;;;;;;4.53;0.90;;;;;;;10.52;72.34;97505.09;5152607;28;20049;-72
2022/09/27 05:56:00;;;;;;;2.17;1.10;;;;;;;10.63;72.67;97507.34;5140729;28;20133;-72
2022/09/27 05:58:58;;;;;;;8.77;1.25;;;;;;;10.77;72.33;97506.53;5135871;28;20151;-72
2022/09/27 06:01:54;;;;;;;4.10;1.25;;;;;;;11.18;70.39;97503.41;5146256;28;20147;-72
2022/09/27 06:05:21;;;;;;;3.80;1.10;;;;;;;10.34;72.62;97513.38;5088271;29;20236;-72
2022/09/27 06:08:33;;;;;;;5.25;1.20;;;;;;;11.15;70.43;97519.69;5158105;28;20064;-72
2022/09/27 06:11:26;;;;;;;1.52;1.05;;;;;;;11.60;69.36;97514.34;5149967;28;20049;-72
2022/09/27 06:14:16;;;;;;;5.68;1.55;;;;;;;11.32;70.41;97535.41;5158679;28;21870;-72
2022/09/27 06:17:17;;;;;;;4.70;1.33;;;;;;;11.37;69.77;97522.44;5148498;28;20070;-72
2022/09/27 06:20:08;;;;;;;7.30;1.20;;;;;;;11.27;69.72;97543.94;5147888;28;20053;-72
2022/09/27 06:23:11;;;;;;;5.95;1.20;;;;;;;11.74;68.18;97542.69;5165126;28;20061;-72
2022/09/27 06:26:06;;;;;;;6.78;1.50;;;;;;;11.38;70.44;97538.16;5144790;28;20558;-72
2022/09/27 06:29:04;;;;;;;2.67;1.45;;;;;;;11.14;70.73;97552.53;5154150;28;20046;-72
2022/09/27 06:31:58;;;;;;;5.00;1.35;;;;;;;11.37;70.47;97554.28;5166009;28;20100;-72
2022/09/27 06:34:55;;;;;;;4.55;1.30;;;;;;;10.92;70.99;97543.66;5158357;28;20073;-72
2022/09/27 06:37:46;;;;;;;7.50;1.25;;;;;;;11.44;69.79;97534.78;5156906;28;20101;-72
2022/09/27 06:40:36;;;;;;;4.35;1.30;;;;;;;11.60;68.90;97557.66;5149491;28;20504;-72
2022/09/27 06:43:40;;;;;;;5.70;1.80;;;;;;;11.62;68.55;97554.78;5151365;28;20419;-72
2022/09/27 06:46:57;;;;;;;6.32;1.13;;;;;;;11.95;69.30;97564.03;5153474;28;20053;-72
2022/09/27 06:50:07;;;;;;;6.15;1.90;;;;;;;11.35;69.41;97577.50;5162970;28;20417;-72
2022/09/27 06:52:58;;;;;;;3.10;1.08;;;;;;;11.14;69.68;97573.75;5150242;28;20640;-72
2022/09/27 06:55:50;;;;;;;4.55;1.00;;;;;;;11.25;69.21;97568.00;5147428;28;20066;-72
2022/09/27 07:02:04;;;;;;;3.97;0.98;;;;;;;11.21;70.08;97587.94;5173244;28;20057;-72
2022/09/27 07:05:09;;;;;;;1.13;0.70;;;;;;;10.55;71.37;97595.69;5153691;28;20515;-72
2022/09/27 07:08:18;;;;;;;1.10;0.60;;;;;;;10.55;71.88;97603.63;5161037;28;21830;-72
2022/09/27 07:11:08;;;;;;;1.45;0.60;;;;;;;11.00;70.22;97604.56;5141320;28;20046;-72
2022/09/27 07:13:59;;;;;;;5.07;0.80;;;;;;;11.26;69.16;97601.50;5154184;28;20103;-72
2022/09/27 07:16:50;;;;;;;3.88;0.75;;;;;;;11.09;69.13;97588.56;5160640;28;20096;-72
2022/09/27 07:19:41;;;;;;;2.92;0.65;;;;;;;11.16;69.55;97606.25;5163080;28;20099;-72
2022/09/27 07:22:39;;;;;;;1.63;0.50;;;;;;;11.79;67.29;97612.00;5157660;28;20200;-72
2022/09/27 07:25:31;;;;;;;0.82;0.45;;;;;;;10.89;69.58;97610.28;5155544;28;20128;-72
2022/09/27 07:28:22;;;;;;;1.65;0.40;;;;;;;10.66;71.08;97613.00;5155689;28;20061;-72
2022/09/27 07:31:13;;;;;;;0.85;0.43;;;;;;;10.79;70.66;97607.94;5158764;28;20053;-72
2022/09/27 07:34:03;;;;;;;1.25;0.50;;;;;;;10.68;72.54;97616.28;5170019;28;20057;-72
2022/09/27 07:36:58;;;;;;;1.35;0.50;;;;;;;10.99;71.62;97625.97;5158562;28;20065;-72
2022/09/27 07:39:49;;;;;;;1.40;0.85;;;;;;;10.84;71.76;97611.84;5157232;28;20539;-73
2022/09/27 07:42:40;;;;;;;1.38;0.75;;;;;;;10.92;72.01;97625.84;5156953;28;20423;-72
2022/09/27 07:45:31;;;;;;;2.53;0.80;;;;;;;10.93;73.20;97632.81;5153578;28;20050;-72
2022/09/27 07:48:57;;;;;;;0.63;0.60;;;;;;;11.15;70.34;97630.28;5135483;28;20215;-72
2022/09/27 07:52:19;;;;;;;1.25;0.80;;;;;;;11.26;71.12;97633.34;5154252;28;20061;-73
2022/09/27 07:55:32;;;;;;;3.20;0.90;;;;;;;11.19;71.13;97643.03;5144730;28;20060;-73
2022/09/27 07:58:48;;;;;;;3.70;1.40;;;;;;;11.10;71.50;97633.50;5168604;28;20062;-72
2022/09/27 08:01:39;;;;;;;1.70;1.00;;;;;;;11.51;68.88;97633.06;5160153;28;20054;-73
2022/09/27 08:04:29;;;;;;;3.10;1.00;;;;;;;11.53;68.48;97623.09;5177576;28;20060;-72
2022/09/27 08:07:20;;;;;;;3.88;1.15;;;;;;;12.13;68.44;97643.31;5144644;28;20457;-72
2022/09/27 08:10:14;;;;;;;2.45;1.48;;;;;;;12.60;66.90;97655.25;5167031;28;20398;-72
2022/09/27 08:13:05;;;;;;;3.05;1.10;;;;;;;11.88;69.02;97632.16;5145713;28;20709;-73
2022/09/27 08:16:00;;;;;;;1.33;1.10;;;;;;;11.93;69.64;97651.03;5168844;28;20199;-72
2022/09/27 08:18:55;;;;;;;7.18;1.13;;;;;;;11.90;68.01;97658.53;5158071;28;22131;-72
2022/09/27 08:22:04;;;;;;;5.88;1.00;;;;;;;11.87;68.48;97650.94;5179174;28;20101;-72
2022/09/27 08:25:17;;;;;;;1.55;1.00;;;;;;;12.59;66.54;97660.78;5158902;28;20444;-72
2022/09/27 08:28:26;;;;;;;2.90;1.10;;;;;;;12.07;68.46;97667.94;5173238;28;20460;-72
2022/09/27 08:31:25;;;;;;;2.40;1.40;;;;;;;12.78;65.84;97675.25;5163219;28;20133;-73
2022/09/27 08:34:19;;;;;;;2.50;1.20;;;;;;;13.10;64.46;97664.09;5140134;28;20050;-72
2022/09/27 08:37:09;;;;;;;3.38;1.15;;;;;;;12.66;64.79;97683.75;5150963;28;20140;-72
2022/09/27 08:40:01;;;;;;;1.73;1.02;;;;;;;12.74;65.12;97685.44;5148411;28;20052;-72
2022/09/27 08:43:05;;;;;;;2.53;1.40;;;;;;;12.37;66.37;97697.13;5149029;28;20096;-72
2022/09/27 08:46:10;;;;;;;0.77;0.77;;;;;;;12.17;65.68;97707.53;5144057;28;20045;-72
2022/09/27 08:49:15;;;;;;;1.27;0.80;;;;;;;11.49;67.64;97693.50;5152573;28;20057;-72
2022/09/27 08:52:14;;;;;;;1.48;0.82;;;;;;;12.55;64.40;97694.03;5158607;28;20072;-72
2022/09/27 08:55:19;;;;;;;1.77;0.75;;;;;;;12.55;64.06;97696.69;5155471;28;20089;-72
2022/09/27 08:58:34;;;;;;;1.33;0.80;;;;;;;12.56;63.95;97695.72;5150378;28;20049;-70
2022/09/27 09:01:30;;;;;;;3.60;0.90;;;;;;;12.43;64.73;97704.34;5137008;28;20180;-71
2022/09/27 09:04:37;;;;;;;4.43;0.95;;;;;;;11.96;65.04;97703.78;5147491;28;20585;-70
2022/09/27 09:07:46;;;;;;;5.25;1.20;;;;;;;11.61;66.13;97713.25;5156717;28;20052;-73
2022/09/27 09:14:25;;;;;;;4.63;1.10;;;;;;;11.86;66.48;97715.69;5152414;28;20515;-73
2022/09/27 09:17:31;;;;;;;3.88;1.25;;;;;;;12.32;66.06;97716.31;5153102;28;20042;-73
2022/09/27 09:20:57;;;;;;;3.17;1.30;;;;;;;12.02;67.00;97717.31;5158059;28;20432;-73
2022/09/27 09:24:02;;;;;;;4.50;1.55;;;;;;;12.97;64.99;97719.84;5156233;28;20333;-73
2022/09/27 09:27:19;;;;;;;5.80;1.20;;;;;;;12.15;66.27;97706.88;5153635;28;20531;-74
2022/09/27 09:30:21;;;;;;;9.20;2.00;;;;;;;13.88;64.29;97703.19;5156204;28;20072;-73
2022/09/27 09:33:39;;;;;;;4.55;1.63;;;;;;;14.16;58.79;97695.94;5149730;28;20287;-73
2022/09/27 09:36:40;;;;;;;2.35;1.30;;;;;;;14.48;59.88;97693.59;5155445;28;20255;-72
2022/09/27 09:39:43;;;;;;;7.05;1.52;;;;;;;14.15;59.55;97702.28;5166861;28;20143;-72
2022/09/27 09:42:45;;;;;;;4.35;1.27;;;;;;;14.60;59.03;97704.53;5150568;28;20119;-72
2022/09/27 09:45:41;;;;;;;4.50;1.13;;;;;;;14.26;59.33;97701.72;5151889;28;20101;-72
2022/09/27 09:48:43;;;;;;;5.13;1.30;;;;;;;14.37;58.65;97703.00;5151038;28;20053;-72
2022/09/27 09:51:41;;;;;;;7.65;1.98;;;;;;;14.02;58.15;97688.91;5148392;28;20189;-72
2022/09/27 09:54:44;;;;;;;7.18;1.20;;;;;;;13.50;57.54;97690.22;5149142;28;20262;-72
2022/09/27 09:57:45;;;;;;;2.97;1.23;;;;;;;13.29;60.38;97688.44;5143274;28;20428;-73
2022/09/27 10:00:44;;;;;;;4.50;1.20;;;;;;;13.54;58.64;97676.34;5147718;28;20058;-73
2022/09/27 10:03:35;;;;;;;4.35;1.50;;;;;;;13.84;57.22;97673.41;5145430;28;20121;-73
2022/09/27 10:06:27;;;;;;;5.78;1.25;;;;;;;13.15;58.70;97675.00;5144292;28;20093;-72
2022/09/27 10:09:23;;;;;;;5.70;1.30;;;;;;;13.71;59.84;97673.34;5155052;28;20054;-73
2022/09/27 10:12:32;;;;;;;4.28;1.50;;;;;;;13.32;59.70;97680.88;5169891;28;20057;-73
2022/09/27 10:15:27;;;;;;;4.68;1.95;;;;;;;13.68;58.24;97669.25;5155566;28;20134;-71
2022/09/27 10:18:18;;;;;;;6.95;1.60;;;;;;;13.89;58.06;97679.00;5159129;28;20540;-71
2022/09/27 10:21:20;;;;;;;7.38;1.60;;;;;;;13.57;59.43;97675.09;5154516;28;20527;-73
2022/09/27 10:24:13;;;;;;;3.08;1.17;;;;;;;13.40;57.01;97666.59;5152705;28;20129;-73
2022/09/27 10:27:39;;;;;;;3.10;1.15;;;;;;;13.47;57.81;97666.66;5164033;28;20164;-72
2022/09/27 10:30:32;;;;;;;3.60;1.25;;;;;;;13.41;56.99;97654.97;5157867;28;20552;-72
2022/09/27 10:33:31;;;;;;;6.25;1.25;;;;;;;13.49;56.54;97689.41;5166755;28;20045;-72
2022/09/27 10:36:28;;;;;;;4.53;1.00;;;;;;;13.82;56.14;97684.28;5156294;28;20066;-72
2022/09/27 10:39:21;;;;;;;5.18;1.17;;;;;;;14.51;55.52;97696.72;5166218;28;20085;-72
2022/09/27 10:42:32;;;;;;;3.17;1.10;;;;;;;13.42;57.90;97683.22;5152916;28;20058;-72
2022/09/27 10:45:33;;;;;;;4.07;1.10;;;;;;;13.40;61.52;97679.91;5143080;28;20511;-72
2022/09/27 10:48:35;;;;;;;5.80;1.20;;;;;;;13.27;60.50;97679.81;5136959;28;20413;-73
2022/09/27 10:51:30;;;;;;;6.40;1.45;;;;;;;13.32;60.41;97662.25;5154698;28;20112;-72
2022/09/27 10:54:26;;;;;;;6.00;1.50;;;;;;;13.38;61.97;97676.63;5144387;28;20443;-72
2022/09/27 10:57:20;;;;;;;6.00;1.38;;;;;;;13.64;61.07;97691.94;5159549;28;20065;-72
2022/09/27 11:00:22;;;;;;;2.80;1.13;;;;;;;13.86;59.59;97679.38;5158476;28;20119;-72
2022/09/27 11:03:15;;;;;;;3.53;1.38;;;;;;;13.15;61.74;97666.19;5154309;28;20140;-72
2022/09/27 11:06:22;;;;;;;6.20;1.20;;;;;;;13.09;60.92;97677.59;5156656;28;20597;-72
2022/09/27 11:09:28;;;;;;;5.35;1.42;;;;;;;12.96;64.10;97675.66;5160193;28;20056;-73
2022/09/27 11:12:21;;;;;;;3.85;1.38;;;;;;;12.89;63.76;97648.16;5171618;28;20072;-73
2022/09/27 11:15:18;;;;;;;6.57;1.20;;;;;;;12.87;64.22;97661.63;5163918;28;20147;-70
2022/09/27 11:18:31;;;;;;;4.38;1.23;;;;;;;12.65;64.77;97676.78;5156043;28;20176;-71
2022/09/27 11:21:46;;;;;;;5.32;1.70;;;;;;;13.27;64.50;97687.78;5164222;28;20072;-71
2022/09/27 11:24:53;;;;;;;5.93;1.83;;;;;;;12.27;67.26;97688.63;5158230;28;20069;-73
2022/09/27 11:27:49;;;;;;;4.50;1.70;;;;;;;12.93;67.47;97676.84;5157860;28;20428;-73
2022/09/27 11:31:26;;;;;;;3.88;1.70;;;;;;;12.62;68.48;97671.84;5154549;28;20064;-75
2022/09/27 11:34:59;;;;;;;3.65;1.88;;;;;;;12.60;67.07;97663.22;5156224;28;20080;-72
2022/09/27 11:37:59;;;;;;;8.90;2.65;;;;;;;12.42;68.51;97666.31;5137711;28;20050;-71
2022/09/27 11:41:24;;;;;;;7.53;1.95;;;;;;;12.60;68.22;97681.84;5167658;28;20476;-72
2022/09/27 11:44:39;;;;;;;3.27;1.60;;;;;;;12.15;69.74;97685.63;5158759;28;20623;-71
2022/09/27 11:47:48;;;;;;;8.55;1.60;;;;;;;10.67;74.21;97699.47;5168042;28;20077;-72
2022/09/27 11:50:55;;;;;;;1.75;0.80;;;;;;;9.86;74.90;97698.84;5148878;28;20329;-73
2022/09/27 11:54:16;;;;;;;5.93;1.15;;;;;;;9.47;76.34;97704.09;5159780;28;20054;-72
2022/09/27 11:57:09;;;;;;;3.33;0.60;;;;;;;9.46;76.72;97715.66;5156243;28;20576;-71
2022/09/27 12:00:14;;;;;;;3.85;1.23;;;;;;;10.19;74.46;97716.44;5172804;28;20080;-71
2022/09/27 12:03:55;;;;;;;3.88;1.33;;;;;;;10.66;71.93;97711.09;5155299;28;20056;-68
2022/09/27 12:06:55;;;;;;;3.40;0.80;;;;;;;10.78;70.85;97704.34;5163482;28;20052;-73
2022/09/27 12:09:50;;;;;;;7.25;0.88;;;;;;;10.62;71.52;97716.91;5154063;28;20053;-72
2022/09/27 12:12:45;;;;;;;5.93;1.15;;;;;;;10.46;72.28;97693.97;5157538;28;20561;-71
2022/09/27 12:15:41;;;;;;;3.38;0.85;;;;;;;10.40;73.19;97699.94;5153891;28;20184;-69
2022/09/27 12:18:40;;;;;;;6.32;1.08;;;;;;;10.59;72.08;97702.16;5157636;28;20058;-71
2022/09/27 12:21:46;;;;;;;1.30;0.80;;;;;;;11.40;71.54;97698.03;5157830;28;20049;-70
2022/09/27 12:24:37;;;;;;;3.15;1.35;;;;;;;11.04;71.60;97700.53;5155898;28;20069;-70
2022/09/27 12:28:08;;;;;;;5.47;1.50;;;;;;;11.09;72.63;97700.78;5156966;28;20057;-70
2022/09/27 12:31:07;;;;;;;2.47;0.90;;;;;;;11.63;69.56;97697.97;5158841;28;20192;-71
2022/09/27 12:34:21;;;;;;;3.60;1.10;;;;;;;11.63;66.90;97697.97;5160539;28;20076;-71
2022/09/27 12:37:24;;;;;;;1.83;0.80;;;;;;;10.73;71.31;97682.88;5148146;28;20526;-71
2022/09/27 12:40:28;;;;;;;1.70;0.80;;;;;;;10.98;70.93;97686.13;5155554;28;20080;-70
2022/09/27 12:43:30;;;;;;;0.80;0.70;;;;;;;10.61;71.95;97683.44;5151989;28;20551;-70
2022/09/27 12:47:12;;;;;;;1.40;0.70;;;;;;;11.42;70.03;97681.94;5157128;28;20673;-72
2022/09/27 12:50:32;;;;;;;2.95;0.63;;;;;;;10.94;71.64;97674.25;5148540;28;20054;-70
2022/09/27 12:53:28;;;;;;;1.58;0.70;;;;;;;11.38;69.65;97672.69;5149985;28;20094;-72
2022/09/27 12:56:32;;;;;;;0.63;0.50;;;;;;;11.44;70.10;97671.97;5153072;28;20064;-72
2022/09/27 12:59:50;;;;;;;1.90;0.77;;;;;;;11.91;67.26;97676.13;5157518;28;20061;-70
2022/09/27 13:03:18;;;;;;;1.75;1.25;;;;;;;11.81;68.84;97672.91;5158605;28;20527;-71
2022/09/27 13:06:24;;;;;;;6.70;1.10;;;;;;;11.49;68.77;97674.91;5175407;28;20500;-72
2022/09/27 13:09:36;;;;;;;4.70;1.23;;;;;;;11.70;69.24;97669.69;5156062;28;20595;-71
2022/09/27 13:12:29;;;;;;;3.13;1.00;;;;;;;11.48;69.41;97659.97;5159288;28;20109;-71
2022/09/27 13:15:30;;;;;;;1.85;0.65;;;;;;;11.65;69.17;97673.91;5151804;28;20126;-70
2022/09/27 13:18:51;;;;;;;0.68;0.60;;;;;;;11.26;69.26;97667.84;5150363;28;20055;-71
2022/09/27 13:21:48;;;;;;;0.82;0.50;;;;;;;11.31;70.18;97661.16;5153200;28;20132;-71
2022/09/27 13:25:02;;;;;;;3.53;0.80;;;;;;;11.56;69.29;97649.28;5156006;28;20064;-70
2022/09/27 13:28:31;;;;;;;9.23;1.10;;;;;;;11.49;69.74;97659.81;5147223;28;20050;-72
2022/09/27 13:31:53;;;;;;;2.10;1.00;;;;;;;11.87;68.34;97653.59;5151124;28;20061;-71
2022/09/27 13:34:55;;;;;;;1.05;0.90;;;;;;;11.77;68.18;97657.31;5165955;28;20188;-72
2022/09/27 13:37:57;;;;;;;2.50;0.82;;;;;;;12.11;68.33;97652.47;5150339;28;20049;-72
2022/09/27 13:41:18;;;;;;;4.80;1.02;;;;;;;12.12;69.88;97646.13;5140245;28;20105;-71
2022/09/27 13:45:12;;;;;;;1.45;1.15;;;;;;;11.80;69.97;97650.81;5152717;28;20209;-71
2022/09/27 13:48:15;;;;;;;1.40;1.10;;;;;;;12.15;68.81;97632.47;5113240;28;20059;-72
2022/09/27 13:51:22;;;;;;;3.10;1.10;;;;;;;11.97;67.97;97624.91;5167226;28;20098;-71
2022/09/27 13:54:34;;;;;;;3.40;1.20;;;;;;;12.13;68.52;97647.78;5158767;28;20052;-71
2022/09/27 13:57:32;;;;;;;2.03;1.23;;;;;;;11.92;67.71;97659.16;5158023;28;20162;-70
2022/09/27 14:00:28;;;;;;;4.15;1.60;;;;;;;11.64;69.78;97653.66;5151877;28;20416;-71
2022/09/27 14:03:31;;;;;;;2.88;1.20;;;;;;;12.02;68.68;97643.78;5153227;28;20061;-71
2022/09/27 14:06:29;;;;;;;1.55;1.10;;;;;;;12.07;68.43;97644.03;5156310;28;20057;-73
2022/09/27 14:09:26;;;;;;;2.90;1.17;;;;;;;12.10;68.38;97656.97;5153094;28;20057;-73
2022/09/27 14:12:32;;;;;;;4.95;1.40;;;;;;;11.95;68.43;97642.88;5134956;28;20061;-73
2022/09/27 14:15:31;;;;;;;4.20;1.27;;;;;;;12.13;69.83;97639.81;5143551;28;20048;-71
2022/09/27 14:18:24;;;;;;;2.97;1.45;;;;;;;11.88;68.94;97632.16;5148377;28;20136;-73
2022/09/27 14:21:27;;;;;;;2.80;1.30;;;;;;;12.54;68.08;97634.72;5144624;28;20534;-74